Flugplatz Am Salzgittersee (UL)

Hier findest Du alle Informationen zum Flugplatz Am Salzgittersee (UL).

Informationen für Piloten zum Flugplatz Am Salzgittersee

Hier findest Du alle relevanten Informationen, die Du als Pilot benötigst, um Am Salzgittersee anzufliegen.

Flugplatz: Am Salzgittersee ICAO-Code: UL Flugplatz
Frequenz Turm: 130.125 Mhz GAFOR Gebiet: -
Frequenz Ground: 130.125 Mhz Mogas: ja
Platzrunde: SO 0 ft Landegebühr: -
Platzhöhe: - Sunrise: 03:01 Uhr UTC
Pisten: 04/22 - 710 m x 30 m, GRAS Sunset: 19:31 Uhr UTC

Flugwetter am Flugplatz Am Salzgittersee

Die METAR Information stammen aus EDVE (23.28 km entfernt).

METAR Code:
2020/05/25 08:20
EDVE 250820Z 31011KT 9999 OVC024 11/06 Q1029

Flugschulen am Flugplatz Am Salzgittersee

Am Flugplatz Am Salzgittersee gibt es leider keine Flugschule.

Benachbarte Flugplätze und Flugschulen

Es gibt 12 weitere Flugplätze in einem Umkreis von 50 km um den Flugplatz Am Salzgittersee.

Jetzt anmelden

Passwort vergessen

Umfrage Archiv

Wären Rettungsgeräte keine Pflicht mehr, würdet Ihr Euer UL trotzdem mit einem ausstatten?

Ja
79.8 %
Nein
20.2 %
Stimmen: 119 | Diskussion
Anzeige: Roland Aircraft
Statistik Alle Mitglieder

Aktuell sind 52 Besucher online.

Anzeige: VFR Sprechfunk Simulator


Anzeige: Pocket FMS